createdAt,value
2019-04-26T00:00:21.334Z,11.0
2019-04-26T00:01:22.684Z,11.1
2019-04-26T00:02:24.030Z,11.1
2019-04-26T00:03:25.390Z,11.0
2019-04-26T00:04:26.716Z,11.1
2019-04-26T00:05:34.368Z,11.1
2019-04-26T00:06:29.375Z,11.1
2019-04-26T00:07:30.729Z,11.0
2019-04-26T00:08:32.086Z,11.1
2019-04-26T00:09:33.449Z,11.1
2019-04-26T00:10:34.795Z,11.1
2019-04-26T00:11:36.115Z,11.1
2019-04-26T00:12:37.469Z,11.0
2019-04-26T00:13:38.786Z,11.0
2019-04-26T00:14:40.102Z,11.0
2019-04-26T00:15:41.456Z,11.0
2019-04-26T00:16:42.774Z,11.0
2019-04-26T00:17:44.125Z,11.0
2019-04-26T00:18:45.472Z,11.0
2019-04-26T00:19:46.820Z,11.0
2019-04-26T00:20:48.135Z,10.9
2019-04-26T00:21:49.487Z,11.1
2019-04-26T00:22:50.819Z,11.0
2019-04-26T00:23:52.195Z,10.9
2019-04-26T00:24:53.534Z,10.9
2019-04-26T00:25:54.926Z,11.0
2019-04-26T00:26:56.271Z,11.0
2019-04-26T00:27:57.654Z,11.0
2019-04-26T00:28:59.056Z,10.9
2019-04-26T00:30:00.415Z,11.0
2019-04-26T00:31:01.779Z,10.9
2019-04-26T00:32:03.185Z,10.9
2019-04-26T00:33:04.565Z,10.9
2019-04-26T00:34:05.923Z,10.8
2019-04-26T00:35:07.339Z,10.8
2019-04-26T00:36:08.654Z,10.8
2019-04-26T00:37:10.015Z,10.8
2019-04-26T00:38:11.635Z,10.7
2019-04-26T00:39:13.391Z,10.6
2019-04-26T00:40:14.327Z,10.8
2019-04-26T00:41:16.324Z,10.7
2019-04-26T00:42:16.693Z,10.7
2019-04-26T00:43:18.581Z,10.7
2019-04-26T00:44:20.799Z,10.7
2019-04-26T00:45:21.100Z,10.5
2019-04-26T00:46:22.986Z,10.5
2019-04-26T00:47:23.771Z,10.5
2019-04-26T00:48:25.129Z,10.6
2019-04-26T00:49:26.485Z,10.5
2019-04-26T00:50:27.834Z,10.5
2019-04-26T00:51:29.186Z,10.5
2019-04-26T00:52:30.552Z,10.4
2019-04-26T00:53:31.886Z,10.5
2019-04-26T00:54:33.235Z,10.5
2019-04-26T00:55:34.582Z,10.5
2019-04-26T00:56:35.932Z,10.4
2019-04-26T00:57:37.292Z,10.3
2019-04-26T00:58:38.636Z,10.3
2019-04-26T00:59:39.987Z,10.3
2019-04-26T01:00:41.341Z,10.4
2019-04-26T01:01:42.692Z,10.3
2019-04-26T01:02:44.033Z,10.3
2019-04-26T01:03:45.387Z,10.2
2019-04-26T01:04:46.732Z,10.3
2019-04-26T01:05:59.558Z,10.3
2019-04-26T01:06:49.404Z,10.2
2019-04-26T01:07:50.751Z,10.2
2019-04-26T01:08:52.110Z,10.2
2019-04-26T01:09:53.460Z,10.1
2019-04-26T01:10:54.829Z,10.2
2019-04-26T01:11:56.170Z,10.2
2019-04-26T01:12:57.515Z,10.1
2019-04-26T01:13:58.870Z,10.1
2019-04-26T01:15:00.224Z,10.1
2019-04-26T01:16:01.571Z,10.1
2019-04-26T01:17:02.917Z,10.1
2019-04-26T01:18:04.271Z,10.1
2019-04-26T01:19:05.616Z,10.0
2019-04-26T01:20:06.972Z,10.1
2019-04-26T01:21:08.327Z,10.1
2019-04-26T01:22:09.682Z,10.1
2019-04-26T01:23:11.030Z,10.1
2019-04-26T01:24:12.380Z,10.2
2019-04-26T01:25:13.726Z,10.2
2019-04-26T01:26:15.090Z,10.2
2019-04-26T01:27:16.968Z,10.2
2019-04-26T01:28:18.494Z,10.1
2019-04-26T01:29:19.611Z,10.1
2019-04-26T01:30:20.396Z,10.1
2019-04-26T01:31:21.934Z,10.1
2019-04-26T01:32:24.023Z,10.1
2019-04-26T01:33:24.372Z,10.1
2019-04-26T01:34:26.170Z,10.1
2019-04-26T01:35:27.052Z,10.1
2019-04-26T01:36:28.507Z,10.1
2019-04-26T01:37:29.717Z,10.1
2019-04-26T01:38:31.910Z,10.2
2019-04-26T01:39:32.391Z,10.1
2019-04-26T01:40:33.735Z,10.1
2019-04-26T01:41:35.096Z,10.1
2019-04-26T01:42:36.440Z,10.1
2019-04-26T01:43:37.786Z,10.2
2019-04-26T01:44:39.146Z,10.2
2019-04-26T01:45:40.496Z,10.2
2019-04-26T01:46:41.861Z,10.1
2019-04-26T01:47:43.212Z,10.1
2019-04-26T01:48:44.565Z,10.2
2019-04-26T01:49:45.925Z,10.1
2019-04-26T01:50:47.278Z,10.1
2019-04-26T01:51:48.651Z,10.1
2019-04-26T01:52:49.978Z,10.0
2019-04-26T01:53:51.335Z,10.0
2019-04-26T01:54:52.683Z,10.1
2019-04-26T01:55:54.042Z,10.0
2019-04-26T01:56:55.396Z,10.0
2019-04-26T01:57:56.743Z,9.9
2019-04-26T01:58:58.092Z,9.9
2019-04-26T01:59:59.438Z,9.9
2019-04-26T02:01:00.782Z,9.9
2019-04-26T02:02:02.147Z,9.9
2019-04-26T02:03:03.495Z,9.9
2019-04-26T02:04:04.857Z,9.9
2019-04-26T02:05:06.211Z,10.0
2019-04-26T02:06:07.561Z,9.9
2019-04-26T02:07:08.901Z,9.9
2019-04-26T02:08:10.255Z,9.8
2019-04-26T02:09:11.600Z,9.8
2019-04-26T02:10:13.004Z,9.8
2019-04-26T02:11:53.893Z,9.8
2019-04-26T02:12:55.262Z,9.8
2019-04-26T02:13:56.594Z,9.8
2019-04-26T02:14:57.947Z,9.8
2019-04-26T02:15:59.300Z,9.8
2019-04-26T02:17:00.642Z,9.8
2019-04-26T02:18:01.997Z,9.8
2019-04-26T02:19:03.341Z,9.8
2019-04-26T02:20:04.688Z,9.8
2019-04-26T02:21:06.066Z,9.8
2019-04-26T02:22:07.406Z,9.8
2019-04-26T02:23:08.768Z,9.8
2019-04-26T02:24:10.122Z,9.8
2019-04-26T02:25:11.648Z,9.7
2019-04-26T02:26:12.992Z,9.8
2019-04-26T02:27:14.342Z,9.7
2019-04-26T02:28:15.682Z,9.7
2019-04-26T02:29:17.044Z,9.8
2019-04-26T02:30:18.387Z,9.7
2019-04-26T02:31:19.754Z,9.8
2019-04-26T02:32:21.090Z,9.8
2019-04-26T02:33:22.436Z,9.7
2019-04-26T02:34:25.819Z,9.8
2019-04-26T02:35:26.552Z,9.7
2019-04-26T02:36:45.274Z,9.7
2019-04-26T02:37:28.767Z,9.7
2019-04-26T02:38:30.708Z,9.7
2019-04-26T02:39:31.396Z,9.8
2019-04-26T02:40:33.058Z,9.7
2019-04-26T02:41:33.893Z,9.7
2019-04-26T02:42:35.003Z,9.8
2019-04-26T02:43:37.146Z,9.7
2019-04-26T02:44:38.286Z,9.8
2019-04-26T02:45:38.293Z,9.7
2019-04-26T02:46:39.610Z,9.8
2019-04-26T02:47:40.961Z,9.7
2019-04-26T02:48:42.309Z,9.8
2019-04-26T02:49:43.660Z,9.7
2019-04-26T02:50:45.010Z,9.7
2019-04-26T02:51:46.362Z,9.7
2019-04-26T02:52:47.717Z,9.7
2019-04-26T02:53:49.079Z,9.8
2019-04-26T02:54:50.428Z,9.9
2019-04-26T02:55:51.777Z,9.8
2019-04-26T02:56:53.122Z,9.8
2019-04-26T02:57:54.474Z,9.8
2019-04-26T02:58:55.828Z,9.8
2019-04-26T02:59:57.173Z,9.8
2019-04-26T03:00:58.527Z,9.8
2019-04-26T03:01:59.879Z,9.8
2019-04-26T03:03:01.248Z,9.9
2019-04-26T03:04:02.592Z,9.9
2019-04-26T03:05:03.940Z,9.9
2019-04-26T03:06:05.297Z,9.9
2019-04-26T03:07:06.648Z,9.9
2019-04-26T03:08:07.999Z,10.0
2019-04-26T03:09:09.349Z,10.0
2019-04-26T03:10:10.707Z,10.0
2019-04-26T03:11:12.048Z,9.9
2019-04-26T03:12:13.398Z,9.9
2019-04-26T03:13:14.754Z,10.0
2019-04-26T03:14:16.113Z,9.9
2019-04-26T03:15:17.457Z,10.0
2019-04-26T03:16:18.813Z,10.0
2019-04-26T03:17:20.173Z,10.0
2019-04-26T03:18:21.529Z,10.0
2019-04-26T03:19:22.865Z,10.0
2019-04-26T03:20:24.233Z,10.0
2019-04-26T03:21:25.572Z,10.1
2019-04-26T03:22:26.930Z,10.1
2019-04-26T03:23:41.806Z,10.1
2019-04-26T03:24:31.043Z,10.1
2019-04-26T03:25:32.665Z,10.2
2019-04-26T03:26:33.694Z,10.1
2019-04-26T03:27:35.106Z,10.1
2019-04-26T03:28:36.764Z,10.2
2019-04-26T03:29:37.463Z,10.1
2019-04-26T03:30:42.766Z,10.2
2019-04-26T03:31:47.978Z,10.2
2019-04-26T03:32:52.625Z,10.1
2019-04-26T03:33:50.035Z,10.2
2019-04-26T03:34:50.731Z,10.2
2019-04-26T03:35:55.533Z,10.3
2019-04-26T03:36:45.421Z,10.3
2019-04-26T03:37:46.759Z,10.3
2019-04-26T03:38:48.112Z,10.2
2019-04-26T03:39:49.464Z,10.3
2019-04-26T03:40:50.815Z,10.3
2019-04-26T03:41:52.173Z,10.3
2019-04-26T03:42:53.529Z,10.4
2019-04-26T03:43:54.939Z,10.4
2019-04-26T03:44:56.288Z,10.3
2019-04-26T03:45:57.633Z,10.3
2019-04-26T03:46:58.995Z,10.3
2019-04-26T03:48:00.337Z,10.3
2019-04-26T03:49:01.692Z,10.4
2019-04-26T03:50:03.044Z,10.4
2019-04-26T03:51:04.395Z,10.5
2019-04-26T03:52:05.767Z,10.5
2019-04-26T03:53:07.105Z,10.4
2019-04-26T03:54:08.461Z,10.4
2019-04-26T03:55:09.808Z,10.4
2019-04-26T03:56:11.164Z,10.4
2019-04-26T03:57:13.784Z,10.5
2019-04-26T03:58:13.844Z,10.5
2019-04-26T03:59:15.193Z,10.4
2019-04-26T04:00:16.546Z,10.4
2019-04-26T04:01:17.900Z,10.5
2019-04-26T04:02:19.281Z,10.6
2019-04-26T04:03:20.635Z,10.6
2019-04-26T04:04:21.989Z,10.5
2019-04-26T04:05:23.344Z,10.5
2019-04-26T04:06:24.703Z,10.5
2019-04-26T04:07:36.786Z,10.5
2019-04-26T04:08:27.381Z,10.5
2019-04-26T04:09:28.731Z,10.6
2019-04-26T04:10:30.098Z,10.6
2019-04-26T04:11:31.460Z,10.6
2019-04-26T04:12:32.793Z,10.6
2019-04-26T04:13:34.339Z,10.6
2019-04-26T04:14:37.661Z,10.6
2019-04-26T04:15:38.082Z,10.6
2019-04-26T04:16:39.225Z,10.6
2019-04-26T04:17:41.890Z,10.7
2019-04-26T04:18:41.783Z,10.7
2019-04-26T04:19:43.851Z,10.6
2019-04-26T04:20:44.385Z,10.6
2019-04-26T04:21:46.135Z,10.6
2019-04-26T04:22:47.310Z,10.6
2019-04-26T04:23:48.653Z,10.7
2019-04-26T04:24:48.847Z,10.6
2019-04-26T04:25:50.139Z,10.7
2019-04-26T04:26:51.496Z,10.7
2019-04-26T04:27:52.881Z,10.7
2019-04-26T04:28:54.226Z,10.8
2019-04-26T04:29:56.010Z,10.7
2019-04-26T04:30:56.910Z,10.7
2019-04-26T04:31:58.274Z,10.7
2019-04-26T04:32:59.629Z,10.8
2019-04-26T04:34:01.006Z,10.8
2019-04-26T04:35:06.135Z,10.8
2019-04-26T04:36:03.712Z,10.8
2019-04-26T04:37:05.064Z,10.8
2019-04-26T04:38:09.566Z,10.8
2019-04-26T04:39:12.251Z,10.8
2019-04-26T04:40:09.887Z,10.8
2019-04-26T04:41:11.265Z,10.8
2019-04-26T04:42:12.603Z,10.9
2019-04-26T04:43:14.029Z,10.8
2019-04-26T04:44:15.291Z,10.8
2019-04-26T04:45:16.641Z,10.8
2019-04-26T04:46:18.053Z,10.9
2019-04-26T04:47:24.200Z,10.9
2019-04-26T04:48:20.698Z,10.8
2019-04-26T04:49:21.940Z,10.9
2019-04-26T04:50:23.299Z,10.8
2019-04-26T04:51:24.662Z,10.9
2019-04-26T04:52:26.015Z,10.8
2019-04-26T04:53:27.379Z,10.8
2019-04-26T04:54:28.735Z,10.8
2019-04-26T04:55:30.095Z,10.8
2019-04-26T04:56:31.460Z,10.8
2019-04-26T04:57:32.815Z,10.8
2019-04-26T04:58:34.169Z,10.8
2019-04-26T04:59:35.525Z,10.8
2019-04-26T05:00:36.937Z,10.8
2019-04-26T05:01:38.254Z,10.8
2019-04-26T05:02:39.696Z,10.8
2019-04-26T05:03:40.926Z,10.8
2019-04-26T05:04:42.741Z,10.8
2019-04-26T05:05:44.008Z,10.8
2019-04-26T05:06:44.993Z,10.7
2019-04-26T05:07:47.248Z,10.7
2019-04-26T05:08:48.926Z,10.6
2019-04-26T05:09:49.472Z,10.7
2019-04-26T05:10:50.203Z,10.6
2019-04-26T05:11:51.991Z,10.6
2019-04-26T05:12:52.888Z,10.7
2019-04-26T05:13:54.250Z,10.7
2019-04-26T05:14:55.610Z,10.7
2019-04-26T05:15:56.965Z,10.6
2019-04-26T05:16:58.323Z,10.7
2019-04-26T05:17:59.684Z,10.7
2019-04-26T05:19:01.035Z,10.6
2019-04-26T05:20:02.390Z,10.6
2019-04-26T05:21:03.745Z,10.6
2019-04-26T05:22:05.105Z,10.5
2019-04-26T05:23:06.458Z,10.6
2019-04-26T05:24:07.816Z,10.5
2019-04-26T05:25:09.171Z,10.6
2019-04-26T05:26:10.538Z,10.5
2019-04-26T05:27:11.891Z,10.5
2019-04-26T05:28:13.246Z,10.5
2019-04-26T05:29:14.614Z,10.6
2019-04-26T05:30:15.961Z,10.5
2019-04-26T05:31:17.317Z,10.5
2019-04-26T05:32:18.719Z,10.4
2019-04-26T05:33:20.065Z,10.5
2019-04-26T05:34:21.463Z,10.5
2019-04-26T05:35:22.859Z,10.5
2019-04-26T05:36:24.284Z,10.5
2019-04-26T05:37:25.680Z,10.6
2019-04-26T05:38:27.073Z,10.5
2019-04-26T05:39:28.456Z,10.5
2019-04-26T05:40:29.881Z,10.5
2019-04-26T05:41:31.245Z,10.5
2019-04-26T05:42:32.613Z,10.6
2019-04-26T05:43:34.139Z,10.6
2019-04-26T05:44:35.491Z,10.4
2019-04-26T05:45:36.865Z,10.4
2019-04-26T05:46:38.228Z,10.5
2019-04-26T05:47:39.583Z,10.5
2019-04-26T05:48:40.959Z,10.4
2019-04-26T05:49:42.296Z,10.5
2019-04-26T05:50:43.664Z,10.5
2019-04-26T05:51:45.015Z,10.6
2019-04-26T05:52:46.370Z,10.6
2019-04-26T05:53:48.511Z,10.5
2019-04-26T05:54:49.608Z,10.5
2019-04-26T05:55:51.221Z,10.5
2019-04-26T05:56:52.665Z,10.6
2019-04-26T05:57:54.248Z,10.5
2019-04-26T05:58:54.556Z,10.5
2019-04-26T05:59:56.685Z,10.4
2019-04-26T06:00:57.842Z,10.5
2019-04-26T06:01:58.970Z,10.4
2019-04-26T06:02:59.654Z,10.4
2019-04-26T06:04:01.016Z,10.5
2019-04-26T06:05:02.380Z,10.4
2019-04-26T06:06:05.272Z,10.4
2019-04-26T06:07:05.192Z,10.4
2019-04-26T06:08:06.541Z,10.5
2019-04-26T06:09:07.901Z,10.5
2019-04-26T06:10:09.259Z,10.4
2019-04-26T06:11:10.742Z,10.5
2019-04-26T06:12:12.490Z,10.5
2019-04-26T06:13:13.429Z,10.5
2019-04-26T06:14:14.795Z,10.6
2019-04-26T06:15:16.148Z,10.6
2019-04-26T06:16:17.520Z,10.5
2019-04-26T06:17:18.878Z,10.6
2019-04-26T06:18:20.240Z,10.6
2019-04-26T06:19:21.600Z,10.5
2019-04-26T06:20:23.558Z,10.6
2019-04-26T06:21:24.288Z,10.5
2019-04-26T06:22:25.637Z,10.5
2019-04-26T06:23:26.999Z,10.5
2019-04-26T06:24:28.370Z,10.5
2019-04-26T06:25:29.772Z,10.5
2019-04-26T06:26:31.121Z,10.6
2019-04-26T06:27:32.484Z,10.6
2019-04-26T06:28:33.845Z,10.6
2019-04-26T06:29:35.209Z,10.6
2019-04-26T06:30:45.287Z,10.5
2019-04-26T06:31:37.891Z,10.6
2019-04-26T06:32:39.327Z,10.7
2019-04-26T06:33:40.626Z,10.6
2019-04-26T06:34:41.944Z,10.6
2019-04-26T06:35:43.306Z,10.6
2019-04-26T06:36:44.655Z,10.6
2019-04-26T06:37:46.020Z,10.7
2019-04-26T06:38:47.377Z,10.7
2019-04-26T06:39:48.737Z,10.7
2019-04-26T06:40:50.101Z,10.6
2019-04-26T06:41:51.465Z,10.6
2019-04-26T06:42:54.739Z,10.6
2019-04-26T06:43:55.063Z,10.6
2019-04-26T06:44:56.306Z,10.6
2019-04-26T06:45:56.880Z,10.6
2019-04-26T06:46:58.113Z,10.5
2019-04-26T06:47:59.467Z,10.6
2019-04-26T06:49:01.035Z,10.6
2019-04-26T06:50:03.396Z,10.7
2019-04-26T06:51:03.492Z,10.6
2019-04-26T06:52:05.079Z,10.6
2019-04-26T06:53:06.277Z,10.7
2019-04-26T06:54:07.496Z,10.7
2019-04-26T06:55:08.846Z,10.7
2019-04-26T06:56:10.212Z,10.6
2019-04-26T06:57:14.860Z,10.8
2019-04-26T06:58:13.096Z,10.8
2019-04-26T06:59:17.061Z,10.7
2019-04-26T07:00:15.562Z,10.7
2019-04-26T07:01:16.926Z,10.7
2019-04-26T07:02:18.276Z,10.6
2019-04-26T07:03:19.673Z,10.7
2019-04-26T07:04:20.999Z,10.6
2019-04-26T07:05:22.392Z,10.6
2019-04-26T07:06:34.587Z,10.7
2019-04-26T07:07:25.036Z,10.7
2019-04-26T07:08:26.395Z,10.6
2019-04-26T07:09:27.771Z,10.7
2019-04-26T07:10:29.144Z,10.7
2019-04-26T07:11:30.505Z,10.6
2019-04-26T07:12:31.862Z,10.7
2019-04-26T07:13:33.239Z,10.6
2019-04-26T07:14:34.581Z,10.6
2019-04-26T07:15:35.952Z,10.6
2019-04-26T07:16:37.313Z,10.7
2019-04-26T07:17:38.690Z,10.6
2019-04-26T07:18:40.058Z,10.6
2019-04-26T07:19:41.426Z,10.8
2019-04-26T07:20:42.810Z,10.8
2019-04-26T07:21:44.174Z,10.8
2019-04-26T07:22:45.545Z,10.8
2019-04-26T07:23:46.915Z,10.8
2019-04-26T07:24:48.261Z,10.7
2019-04-26T07:25:49.620Z,10.8
2019-04-26T07:26:51.000Z,10.8
2019-04-26T07:28:03.347Z,10.8
2019-04-26T07:28:53.677Z,10.9
2019-04-26T07:29:55.094Z,10.9
2019-04-26T07:30:56.406Z,10.8
2019-04-26T07:31:57.777Z,10.8
2019-04-26T07:32:59.836Z,10.8
2019-04-26T07:34:00.800Z,10.9
2019-04-26T07:35:02.628Z,10.8
2019-04-26T07:36:03.759Z,10.9
2019-04-26T07:37:04.660Z,10.9
2019-04-26T07:38:06.839Z,10.9
2019-04-26T07:39:15.670Z,10.8
2019-04-26T07:40:09.202Z,10.8
2019-04-26T07:41:09.746Z,10.8
2019-04-26T07:42:11.544Z,10.7
2019-04-26T07:43:12.556Z,10.7
2019-04-26T07:44:13.757Z,10.7
2019-04-26T07:45:15.115Z,10.6
2019-04-26T07:46:16.492Z,10.6
2019-04-26T07:47:17.848Z,10.7
2019-04-26T07:48:19.207Z,10.6
2019-04-26T07:49:20.550Z,10.6
2019-04-26T07:50:21.920Z,10.7
2019-04-26T07:51:23.394Z,10.7
2019-04-26T07:52:24.752Z,10.6
2019-04-26T07:53:26.106Z,10.6
2019-04-26T07:54:27.467Z,10.6
2019-04-26T07:55:28.832Z,10.7
2019-04-26T07:56:30.212Z,10.7
2019-04-26T07:57:31.581Z,10.6
2019-04-26T07:58:32.940Z,10.6
2019-04-26T07:59:34.302Z,10.7
2019-04-26T08:00:44.750Z,10.7
2019-04-26T08:01:36.995Z,10.6
2019-04-26T08:02:38.363Z,10.7
2019-04-26T08:03:39.720Z,10.6
2019-04-26T08:04:41.076Z,10.6
2019-04-26T08:05:42.432Z,10.6
2019-04-26T08:06:43.805Z,10.6
2019-04-26T08:07:45.165Z,10.7
2019-04-26T08:08:46.528Z,10.6
2019-04-26T08:09:59.520Z,10.7
2019-04-26T08:10:49.211Z,10.7
2019-04-26T08:12:30.152Z,10.7
2019-04-26T08:13:31.508Z,10.7
2019-04-26T08:14:32.877Z,10.7
2019-04-26T08:15:34.262Z,10.7
2019-04-26T08:16:35.621Z,10.7
2019-04-26T08:17:36.984Z,10.8
2019-04-26T08:18:38.360Z,10.8
2019-04-26T08:19:39.716Z,10.9
2019-04-26T08:20:41.114Z,10.8
2019-04-26T08:21:47.341Z,10.8
2019-04-26T08:22:43.772Z,10.8
2019-04-26T08:23:45.133Z,10.9
2019-04-26T08:24:46.502Z,10.8
2019-04-26T08:25:47.868Z,10.8
2019-04-26T08:26:49.237Z,10.8
2019-04-26T08:27:50.601Z,10.9
2019-04-26T08:28:51.968Z,10.9
2019-04-26T08:29:53.345Z,10.9
2019-04-26T08:30:54.696Z,10.9
2019-04-26T08:31:57.858Z,11.0
2019-04-26T08:32:57.405Z,10.9
2019-04-26T08:33:58.758Z,11.0
2019-04-26T08:35:02.426Z,11.0
2019-04-26T08:36:01.456Z,11.0
2019-04-26T08:37:03.214Z,11.0
2019-04-26T08:38:07.903Z,11.0
2019-04-26T08:39:05.941Z,11.0
2019-04-26T08:40:06.798Z,10.9
2019-04-26T08:41:09.517Z,10.9
2019-04-26T08:42:17.418Z,10.9
2019-04-26T08:43:10.942Z,10.9
2019-04-26T08:44:12.166Z,10.8
2019-04-26T08:45:14.182Z,10.8
2019-04-26T08:46:14.856Z,10.8
2019-04-26T08:47:19.843Z,10.7
2019-04-26T08:48:17.549Z,10.7
2019-04-26T08:49:18.913Z,10.7
2019-04-26T08:50:20.271Z,10.7
2019-04-26T08:51:22.066Z,10.7
2019-04-26T08:52:23.006Z,10.7
2019-04-26T08:53:24.367Z,10.7
2019-04-26T08:54:25.728Z,10.6
2019-04-26T08:55:27.120Z,10.5
2019-04-26T08:56:28.478Z,10.6
2019-04-26T08:57:29.838Z,10.5
2019-04-26T08:58:31.203Z,10.6
2019-04-26T08:59:32.561Z,10.6
2019-04-26T09:00:33.934Z,10.5
2019-04-26T09:01:35.285Z,10.5
2019-04-26T09:02:36.662Z,10.6
2019-04-26T09:03:38.028Z,10.5
2019-04-26T09:04:39.387Z,10.5
2019-04-26T09:05:40.753Z,10.6
2019-04-26T09:06:42.107Z,10.7
2019-04-26T09:07:43.467Z,10.7
2019-04-26T09:08:45.069Z,10.6
2019-04-26T09:09:56.670Z,10.7
2019-04-26T09:10:47.502Z,10.7
2019-04-26T09:11:59.124Z,10.7
2019-04-26T09:12:50.197Z,10.8
2019-04-26T09:13:51.572Z,10.8
2019-04-26T09:14:52.938Z,10.9
2019-04-26T09:15:54.309Z,10.8
2019-04-26T09:16:55.666Z,10.8
2019-04-26T09:17:57.021Z,10.8
2019-04-26T09:18:59.682Z,10.8
2019-04-26T09:20:07.363Z,10.8
2019-04-26T09:21:01.039Z,10.7
2019-04-26T09:22:12.514Z,10.7
2019-04-26T09:23:04.832Z,10.8
2019-04-26T09:24:05.043Z,10.8
2019-04-26T09:25:06.408Z,10.8
2019-04-26T09:26:08.658Z,10.9
2019-04-26T09:27:09.087Z,10.9
2019-04-26T09:28:10.453Z,10.9
2019-04-26T09:29:11.818Z,10.9
2019-04-26T09:30:13.182Z,10.9
2019-04-26T09:31:15.429Z,10.9
2019-04-26T09:32:15.884Z,10.9
2019-04-26T09:33:17.281Z,10.8
2019-04-26T09:34:18.585Z,10.8
2019-04-26T09:35:19.951Z,10.8
2019-04-26T09:36:21.315Z,10.8
2019-04-26T09:37:22.687Z,10.7
2019-04-26T09:38:24.056Z,10.7
2019-04-26T09:39:25.419Z,10.6
2019-04-26T09:40:26.808Z,10.6
2019-04-26T09:41:30.795Z,10.6
2019-04-26T09:42:29.486Z,10.7
2019-04-26T09:43:30.842Z,10.7
2019-04-26T09:44:32.214Z,10.5
2019-04-26T09:45:33.597Z,10.7
2019-04-26T09:46:34.937Z,10.6
2019-04-26T09:47:36.308Z,10.6
2019-04-26T09:48:37.684Z,10.5
2019-04-26T09:49:41.073Z,10.7
2019-04-26T09:50:40.383Z,10.6
2019-04-26T09:51:41.748Z,10.7
2019-04-26T09:52:43.112Z,10.6
2019-04-26T09:53:44.763Z,10.6
2019-04-26T09:54:45.784Z,10.7
2019-04-26T09:55:47.156Z,10.6
2019-04-26T09:56:48.507Z,10.6
2019-04-26T09:57:49.893Z,10.7
2019-04-26T09:58:51.237Z,10.7
2019-04-26T09:59:52.592Z,10.6
2019-04-26T10:00:53.955Z,10.7
2019-04-26T10:01:59.192Z,10.6
2019-04-26T10:02:56.652Z,10.6
2019-04-26T10:03:58.016Z,10.7
2019-04-26T10:04:59.378Z,10.7
2019-04-26T10:06:00.742Z,10.7
2019-04-26T10:07:03.194Z,10.8
2019-04-26T10:08:03.429Z,10.7
2019-04-26T10:09:04.787Z,10.8
2019-04-26T10:10:06.153Z,10.8
2019-04-26T10:11:09.731Z,10.8
2019-04-26T10:12:08.850Z,10.8
2019-04-26T10:13:10.213Z,10.8
2019-04-26T10:14:11.587Z,10.8
2019-04-26T10:15:12.953Z,10.8
2019-04-26T10:16:14.325Z,10.8
2019-04-26T10:17:17.258Z,10.8
2019-04-26T10:18:20.228Z,10.7
2019-04-26T10:19:18.344Z,10.7
2019-04-26T10:20:19.712Z,10.7
2019-04-26T10:21:21.087Z,10.8
2019-04-26T10:22:22.462Z,10.8
2019-04-26T10:23:23.825Z,10.9
2019-04-26T10:24:25.188Z,10.9
2019-04-26T10:25:26.559Z,10.9
2019-04-26T10:26:28.465Z,10.9
2019-04-26T10:27:29.240Z,11.0
2019-04-26T10:28:30.614Z,11.0
2019-04-26T10:29:31.977Z,11.0
2019-04-26T10:30:33.325Z,11.0
2019-04-26T10:31:34.695Z,11.0
2019-04-26T10:32:36.075Z,11.0
2019-04-26T10:33:37.864Z,11.0
2019-04-26T10:34:42.547Z,11.0
2019-04-26T10:35:40.093Z,11.1
2019-04-26T10:36:41.534Z,11.1
2019-04-26T10:37:44.042Z,11.2
2019-04-26T10:38:44.305Z,11.2
2019-04-26T10:39:45.683Z,11.1
2019-04-26T10:40:47.129Z,11.1
2019-04-26T10:41:48.534Z,11.1
2019-04-26T10:42:49.900Z,11.0
2019-04-26T10:43:51.270Z,11.1
2019-04-26T10:44:52.664Z,11.1
2019-04-26T10:45:54.976Z,11.0
2019-04-26T10:46:55.831Z,11.1
2019-04-26T10:47:56.688Z,11.1
2019-04-26T10:49:08.260Z,11.1
2019-04-26T10:49:59.461Z,11.1
2019-04-26T10:51:03.178Z,11.2
2019-04-26T10:52:02.139Z,11.2
2019-04-26T10:53:03.527Z,11.2
2019-04-26T10:54:05.919Z,11.3
2019-04-26T10:55:06.239Z,11.2
2019-04-26T10:56:07.594Z,11.3
2019-04-26T10:57:08.963Z,11.3
2019-04-26T10:58:10.324Z,11.3
2019-04-26T10:59:11.728Z,11.4
2019-04-26T11:00:14.097Z,11.4
2019-04-26T11:01:14.426Z,11.4
2019-04-26T11:02:15.788Z,11.4
2019-04-26T11:03:17.152Z,11.4
2019-04-26T11:04:18.504Z,11.4
2019-04-26T11:05:19.865Z,11.5
2019-04-26T11:06:24.087Z,11.5
2019-04-26T11:07:22.569Z,11.6
2019-04-26T11:08:23.924Z,11.5
2019-04-26T11:09:25.280Z,11.6
2019-04-26T11:10:26.654Z,11.7
2019-04-26T11:11:28.024Z,11.6
2019-04-26T11:12:29.385Z,11.6
2019-04-26T11:13:30.743Z,11.7
2019-04-26T11:14:32.113Z,11.7
2019-04-26T11:15:34.089Z,11.7
2019-04-26T11:16:37.087Z,11.7
2019-04-26T11:17:36.123Z,11.8
2019-04-26T11:18:37.509Z,11.8
2019-04-26T11:19:38.867Z,11.8
2019-04-26T11:20:41.499Z,11.8
2019-04-26T11:21:41.564Z,11.8
2019-04-26T11:22:42.929Z,11.9
2019-04-26T11:23:45.516Z,11.8
2019-04-26T11:24:45.619Z,11.8
2019-04-26T11:25:46.990Z,11.8
2019-04-26T11:26:48.353Z,11.7
2019-04-26T11:27:49.718Z,11.7
2019-04-26T11:28:51.432Z,11.8
2019-04-26T11:29:53.903Z,11.7
2019-04-26T11:30:57.024Z,11.7
2019-04-26T11:31:58.301Z,11.7
2019-04-26T11:32:56.395Z,11.6
2019-04-26T11:34:05.090Z,11.6
2019-04-26T11:35:00.361Z,11.6
2019-04-26T11:36:03.430Z,11.5
2019-04-26T11:37:01.764Z,11.6
2019-04-26T11:38:03.138Z,11.6
2019-04-26T11:39:05.434Z,11.6
2019-04-26T11:40:05.828Z,11.6
2019-04-26T11:41:07.290Z,11.6
2019-04-26T11:42:11.679Z,11.6
2019-04-26T11:43:09.861Z,11.6
2019-04-26T11:44:11.222Z,11.6
2019-04-26T11:45:14.697Z,11.6
2019-04-26T11:46:13.926Z,11.6
2019-04-26T11:47:15.303Z,11.5
2019-04-26T11:48:16.664Z,11.6
2019-04-26T11:49:18.036Z,11.6
2019-04-26T11:50:19.444Z,11.6
2019-04-26T11:51:23.614Z,11.5
2019-04-26T11:52:22.084Z,11.6
2019-04-26T11:53:23.449Z,11.6
2019-04-26T11:54:24.825Z,11.5
2019-04-26T11:55:29.994Z,11.5
2019-04-26T11:56:27.525Z,11.5
2019-04-26T11:57:28.932Z,11.5
2019-04-26T11:58:30.282Z,11.5
2019-04-26T11:59:31.879Z,11.4
2019-04-26T12:00:32.970Z,11.4
2019-04-26T12:01:36.753Z,11.4
2019-04-26T12:02:35.664Z,11.4
2019-04-26T12:03:37.023Z,11.4
2019-04-26T12:04:38.385Z,11.4
2019-04-26T12:05:39.751Z,11.3
2019-04-26T12:06:41.114Z,11.4
2019-04-26T12:07:42.486Z,11.3
2019-04-26T12:08:43.849Z,11.4
2019-04-26T12:09:45.216Z,11.4
2019-04-26T12:10:46.565Z,11.3
2019-04-26T12:11:49.625Z,11.3
2019-04-26T12:12:51.839Z,11.3
2019-04-26T12:13:50.624Z,11.3
2019-04-26T12:14:51.988Z,11.3
2019-04-26T12:15:53.349Z,11.3
2019-04-26T12:16:58.849Z,11.3
2019-04-26T12:17:59.991Z,11.3
2019-04-26T12:18:57.365Z,11.3
2019-04-26T12:19:58.741Z,11.3
2019-04-26T12:21:00.973Z,11.3
2019-04-26T12:22:04.174Z,11.2
2019-04-26T12:23:02.761Z,11.3
2019-04-26T12:24:04.124Z,11.3
2019-04-26T12:25:07.187Z,11.3
2019-04-26T12:26:06.814Z,11.3
2019-04-26T12:27:10.239Z,11.3
2019-04-26T12:28:09.520Z,11.3
2019-04-26T12:29:14.599Z,11.3
2019-04-26T12:30:12.184Z,11.3
2019-04-26T12:31:15.080Z,11.4
2019-04-26T12:32:17.095Z,11.4
2019-04-26T12:33:16.199Z,11.4
2019-04-26T12:34:17.877Z,11.4
2019-04-26T12:35:18.895Z,11.4
2019-04-26T12:36:20.255Z,11.5
2019-04-26T12:37:21.616Z,11.5
2019-04-26T12:38:24.192Z,11.4
2019-04-26T12:39:24.315Z,11.4
2019-04-26T12:40:25.711Z,11.4
2019-04-26T12:41:39.985Z,11.4
2019-04-26T12:42:28.391Z,11.4
2019-04-26T12:43:29.771Z,11.5
2019-04-26T12:44:32.171Z,11.5
2019-04-26T12:45:32.454Z,11.4
2019-04-26T12:46:33.821Z,11.4
2019-04-26T12:47:38.689Z,11.5
2019-04-26T12:48:36.516Z,11.6
2019-04-26T12:49:37.885Z,11.6
2019-04-26T12:50:39.250Z,11.6
2019-04-26T12:51:42.919Z,11.6
2019-04-26T12:52:41.950Z,11.6
2019-04-26T12:53:43.317Z,11.6
2019-04-26T12:54:44.685Z,11.7
2019-04-26T12:55:49.117Z,11.7
2019-04-26T12:56:47.364Z,11.6
2019-04-26T12:57:48.733Z,11.7
2019-04-26T12:58:50.239Z,11.7
2019-04-26T12:59:51.425Z,11.6
2019-04-26T13:00:54.193Z,11.7
2019-04-26T13:02:05.108Z,11.6
2019-04-26T13:02:55.816Z,11.7
2019-04-26T13:03:58.983Z,11.8
2019-04-26T13:04:58.094Z,11.8
2019-04-26T13:05:59.481Z,11.8
2019-04-26T13:07:02.325Z,11.9
2019-04-26T13:08:02.169Z,11.9
2019-04-26T13:09:03.530Z,11.8
2019-04-26T13:10:04.901Z,11.8
2019-04-26T13:11:08.012Z,11.8
2019-04-26T13:12:07.611Z,11.9
2019-04-26T13:13:09.005Z,11.8
2019-04-26T13:14:10.335Z,11.9
2019-04-26T13:15:13.201Z,11.8
2019-04-26T13:16:13.030Z,11.9
2019-04-26T13:17:14.392Z,11.8
2019-04-26T13:18:15.749Z,11.8
2019-04-26T13:19:19.831Z,11.8
2019-04-26T13:20:18.454Z,11.8
2019-04-26T13:21:19.813Z,11.8
2019-04-26T13:22:21.177Z,11.8
2019-04-26T13:23:25.393Z,11.8
2019-04-26T13:24:23.897Z,11.8
2019-04-26T13:25:26.662Z,11.8
2019-04-26T13:26:30.142Z,11.8
2019-04-26T13:27:27.939Z,11.8
2019-04-26T13:28:29.306Z,11.8
2019-04-26T13:29:31.127Z,11.8
2019-04-26T13:30:32.946Z,11.8
2019-04-26T13:31:33.321Z,11.7
2019-04-26T13:32:34.697Z,11.7
2019-04-26T13:33:36.064Z,11.7
2019-04-26T13:34:38.303Z,11.7
2019-04-26T13:35:41.377Z,11.7
2019-04-26T13:36:40.098Z,11.7
2019-04-26T13:37:41.456Z,11.6
2019-04-26T13:38:43.589Z,11.7
2019-04-26T13:39:44.146Z,11.7